Time;durP1;ratioP1;P1;durP2;ratioP2;P2;SDS_P1;SDS_P2;PMS_P1;PMS_P2;Temp;Humidity;BMP_temperature;BMP_pressure;BME280_temperature;BME280_humidity;BME280_pressure;Samples;Min_cycle;Max_cycle;Signal;HPM_P1;HPM_P2
2023/01/11 00:00:11;;;;;;;4.28;2.78;;;9.60;99.90;;;;;;5017603;28;20036;-75
2023/01/11 00:02:37;;;;;;;5.15;2.38;;;9.60;99.90;;;;;;5035179;28;20071;-73
2023/01/11 00:05:03;;;;;;;6.32;2.60;;;9.70;99.90;;;;;;5035494;28;20374;-73
2023/01/11 00:07:29;;;;;;;5.07;2.60;;;9.70;99.90;;;;;;5035758;28;20037;-73
2023/01/11 00:09:55;;;;;;;4.38;2.60;;;9.80;99.90;;;;;;5001461;28;20195;-73
2023/01/11 00:12:20;;;;;;;5.60;2.70;;;9.70;99.90;;;;;;5034749;28;20042;-73
2023/01/11 00:14:46;;;;;;;7.28;2.58;;;9.80;99.90;;;;;;5017335;28;20536;-73
2023/01/11 00:17:11;;;;;;;3.92;2.47;;;9.80;99.90;;;;;;5017370;28;20481;-75
2023/01/11 00:19:37;;;;;;;6.15;3.05;;;9.80;99.90;;;;;;5035288;28;20029;-76
2023/01/11 00:22:03;;;;;;;5.60;2.75;;;9.80;99.90;;;;;;5000941;28;20033;-75
2023/01/11 00:24:28;;;;;;;5.68;2.78;;;9.90;99.90;;;;;;5033739;28;20439;-76
2023/01/11 00:26:54;;;;;;;2.90;2.55;;;9.90;99.90;;;;;;5033643;28;20470;-73
2023/01/11 00:29:20;;;;;;;5.10;3.15;;;9.90;99.90;;;;;;5035088;28;20056;-74
2023/01/11 00:31:45;;;;;;;7.32;3.42;;;9.90;99.90;;;;;;5034375;28;20109;-74
2023/01/11 00:34:11;;;;;;;6.40;2.75;;;9.90;99.90;;;;;;5032942;28;20128;-74
2023/01/11 00:36:37;;;;;;;7.25;3.95;;;9.90;99.90;;;;;;5034489;28;20469;-74
2023/01/11 00:39:02;;;;;;;6.18;3.03;;;10.00;99.90;;;;;;5016593;28;20516;-74
2023/01/11 00:49:41;;;;;;;4.93;2.35;;;10.10;99.90;;;;;;5034646;28;20036;-73
2023/01/11 00:52:08;;;;;;;6.90;3.00;;;10.10;99.90;;;;;;5016503;28;20083;-73
2023/01/11 00:54:38;;;;;;;6.20;3.00;;;10.10;99.90;;;;;;5032617;28;20033;-73
2023/01/11 00:57:07;;;;;;;5.40;2.30;;;10.10;99.90;;;;;;5034390;28;20029;-73
2023/01/11 00:59:38;;;;;;;4.10;2.60;;;10.10;99.90;;;;;;5033850;28;20035;-73
2023/01/11 01:02:04;;;;;;;4.57;2.42;;;10.20;99.90;;;;;;5034256;28;20057;-73
2023/01/11 01:04:30;;;;;;;6.10;2.53;;;10.20;99.90;;;;;;5032860;28;20103;-73
2023/01/11 01:06:55;;;;;;;4.97;2.50;;;10.20;99.90;;;;;;5032974;28;20029;-73
2023/01/11 01:09:21;;;;;;;5.78;2.47;;;10.20;99.90;;;;;;5000539;28;20057;-73
2023/01/11 01:11:47;;;;;;;6.75;2.60;;;10.20;99.90;;;;;;5033537;28;20438;-74
2023/01/11 01:14:27;;;;;;;6.00;2.30;;;10.20;99.90;;;;;;5034270;28;20530;-74
2023/01/11 01:16:54;;;;;;;5.57;2.65;;;10.20;99.90;;;;;;5034269;28;20029;-74
2023/01/11 01:19:21;;;;;;;4.47;2.20;;;10.20;99.90;;;;;;5033622;28;20437;-73
2023/01/11 01:21:48;;;;;;;6.32;2.30;;;10.20;99.90;;;;;;5033919;28;20036;-74
2023/01/11 01:24:14;;;;;;;6.18;2.47;;;10.30;99.90;;;;;;5033868;28;20463;-75
2023/01/11 01:26:39;;;;;;;6.85;1.95;;;10.30;99.90;;;;;;5033452;28;20026;-75
2023/01/11 01:29:05;;;;;;;7.90;2.83;;;10.30;99.90;;;;;;5033834;28;20364;-75
2023/01/11 01:31:31;;;;;;;2.35;1.95;;;10.30;99.90;;;;;;5032887;28;20130;-75
2023/01/11 01:33:56;;;;;;;5.45;2.00;;;10.30;99.90;;;;;;5032463;28;20044;-75
2023/01/11 01:36:22;;;;;;;5.40;2.13;;;10.30;99.90;;;;;;5016065;28;20088;-75
2023/01/11 01:38:48;;;;;;;3.05;1.77;;;10.30;99.90;;;;;;5033719;28;20125;-75
2023/01/11 01:41:13;;;;;;;4.85;1.77;;;10.30;99.90;;;;;;5032967;28;20052;-75
2023/01/11 01:44:00;;;;;;;3.22;1.45;;;10.40;99.90;;;;;;5015685;28;20040;-75
2023/01/11 01:46:27;;;;;;;4.85;1.80;;;10.40;99.90;;;;;;5033700;28;20021;-75
2023/01/11 01:49:01;;;;;;;6.32;2.20;;;10.40;99.90;;;;;;5033634;28;20119;-75
2023/01/11 01:51:32;;;;;;;2.58;1.60;;;10.40;99.90;;;;;;5034249;28;20021;-75
2023/01/11 01:54:02;;;;;;;5.18;1.50;;;10.40;99.90;;;;;;5033703;28;20037;-75
2023/01/11 01:56:33;;;;;;;3.67;1.80;;;10.40;99.90;;;;;;5032542;28;20028;-75
2023/01/11 01:59:06;;;;;;;3.92;1.77;;;10.40;99.90;;;;;;5033283;28;20051;-76
2023/01/11 02:01:47;;;;;;;4.90;1.85;;;10.40;99.90;;;;;;5033544;28;20112;-75
2023/01/11 02:04:28;;;;;;;3.03;1.77;;;10.40;99.90;;;;;;5032500;28;20532;-76
2023/01/11 02:07:16;;;;;;;4.50;2.05;;;10.40;99.90;;;;;;5033878;28;20099;-75
2023/01/11 02:10:09;;;;;;;2.65;1.50;;;10.40;99.90;;;;;;5032243;28;20120;-76
2023/01/11 02:12:46;;;;;;;2.83;1.48;;;10.50;99.90;;;;;;5034862;28;20466;-76
2023/01/11 02:15:13;;;;;;;2.17;1.27;;;10.50;99.90;;;;;;5036913;28;20167;-75
2023/01/11 02:17:39;;;;;;;1.80;1.33;;;10.50;99.90;;;;;;5037337;28;20040;-75
2023/01/11 02:20:22;;;;;;;4.68;1.42;;;10.40;99.90;;;;;;5036768;28;20446;-76
2023/01/11 02:22:59;;;;;;;;;;;10.50;99.90;;;;;;5037329;28;20030;-75
2023/01/11 02:25:24;;;;;;;2.00;1.00;;;10.50;99.90;;;;;;5036762;28;20257;-75
2023/01/11 02:28:28;;;;;;;2.47;1.10;;;10.50;99.90;;;;;;5036831;28;20033;-75
2023/01/11 02:31:24;;;;;;;7.20;1.35;;;10.50;99.90;;;;;;5036790;28;20033;-75
2023/01/11 02:34:11;;;;;;;2.25;1.38;;;10.50;99.90;;;;;;5036915;28;20063;-75
2023/01/11 02:36:36;;;;;;;3.05;1.40;;;10.50;99.90;;;;;;5035968;28;20053;-75
2023/01/11 02:39:10;;;;;;;1.92;1.40;;;10.50;99.90;;;;;;5035614;28;20090;-75
2023/01/11 02:45:32;;;;;;;2.33;1.40;;;10.60;99.90;;;;;;5036932;28;20041;-75
2023/01/11 02:48:03;;;;;;;2.97;1.17;;;10.60;99.90;;;;;;5035685;28;20489;-75
2023/01/11 02:50:45;;;;;;;1.98;1.38;;;10.60;99.90;;;;;;5036531;28;20021;-75
2023/01/11 02:53:28;;;;;;;1.75;1.30;;;10.60;99.90;;;;;;5036527;28;20030;-75
2023/01/11 02:56:00;;;;;;;2.42;1.42;;;10.60;99.90;;;;;;5036374;28;20040;-75
2023/01/11 02:58:28;;;;;;;2.10;1.38;;;10.60;99.90;;;;;;5035621;28;20021;-75
2023/01/11 03:00:57;;;;;;;3.10;1.38;;;10.70;99.90;;;;;;5035237;28;20022;-75
2023/01/11 03:03:24;;;;;;;2.47;1.70;;;10.70;99.90;;;;;;5036714;28;20090;-75
2023/01/11 03:05:56;;;;;;;3.20;1.77;;;10.60;99.90;;;;;;5018733;28;20432;-76
2023/01/11 03:09:01;;;;;;;3.55;2.35;;;10.70;99.90;;;;;;5036065;28;20112;-75
2023/01/11 03:14:43;;;;;;;1.60;1.50;;;10.70;99.90;;;;;;5036323;28;20096;-75
2023/01/11 03:17:23;;;;;;;1.50;1.40;;;10.80;99.90;;;;;;5035947;28;20390;-75
2023/01/11 03:19:58;;;;;;;1.85;1.70;;;10.80;99.90;;;;;;5035871;28;20056;-75
2023/01/11 03:22:27;;;;;;;2.20;1.80;;;10.80;99.90;;;;;;5035139;28;20532;-75
2023/01/11 03:25:12;;;;;;;4.15;1.92;;;10.80;99.90;;;;;;5035301;28;20033;-75
2023/01/11 03:27:47;;;;;;;2.03;1.80;;;10.80;99.90;;;;;;5036066;28;20040;-75
2023/01/11 03:30:22;;;;;;;2.17;1.98;;;10.80;99.90;;;;;;5034624;28;20021;-75
2023/01/11 03:33:01;;;;;;;1.95;1.77;;;10.80;99.90;;;;;;5034876;28;20029;-75
2023/01/11 03:35:59;;;;;;;2.45;1.90;;;10.90;99.90;;;;;;5034491;28;20055;-75
2023/01/11 03:38:59;;;;;;;3.38;2.25;;;10.90;99.90;;;;;;5035152;28;20362;-75
2023/01/11 03:41:31;;;;;;;2.28;2.08;;;10.90;99.90;;;;;;5035456;28;20440;-75
2023/01/11 03:43:58;;;;;;;2.13;2.00;;;10.90;99.90;;;;;;5035749;28;20362;-75
2023/01/11 03:46:43;;;;;;;4.50;2.30;;;11.00;99.90;;;;;;5034576;28;20025;-75
2023/01/11 03:49:32;;;;;;;2.53;2.20;;;11.00;99.90;;;;;;5035955;28;20033;-76
2023/01/11 03:52:00;;;;;;;3.35;2.30;;;10.90;99.90;;;;;;5034255;28;20033;-75
2023/01/11 03:54:28;;;;;;;2.90;2.03;;;11.00;99.90;;;;;;5035184;28;20033;-75
2023/01/11 03:57:13;;;;;;;2.35;2.17;;;11.00;99.90;;;;;;5035372;28;20370;-75
2023/01/11 03:59:39;;;;;;;3.20;2.30;;;11.00;99.90;;;;;;5034110;28;20034;-75
2023/01/11 04:02:17;;;;;;;2.65;2.22;;;11.10;99.90;;;;;;5035672;28;20378;-74
2023/01/11 04:04:43;;;;;;;2.63;2.10;;;11.10;99.90;;;;;;5035372;28;20033;-73
2023/01/11 04:07:09;;;;;;;2.10;1.90;;;11.10;99.90;;;;;;5034061;28;20029;-74
2023/01/11 04:09:35;;;;;;;2.28;1.70;;;11.10;99.90;;;;;;5017441;28;20036;-74
2023/01/11 04:12:00;;;;;;;2.65;2.08;;;11.10;99.90;;;;;;5001883;28;20030;-74
2023/01/11 04:14:26;;;;;;;2.55;2.00;;;11.10;99.90;;;;;;5017345;28;20041;-74
2023/01/11 04:16:52;;;;;;;2.88;2.17;;;11.10;99.90;;;;;;5034259;28;20091;-74
2023/01/11 04:19:17;;;;;;;3.17;1.95;;;11.10;99.90;;;;;;5033775;28;20466;-74
2023/01/11 04:21:43;;;;;;;3.40;2.00;;;11.10;99.90;;;;;;5017380;28;20052;-74
2023/01/11 04:24:08;;;;;;;2.30;2.05;;;11.20;99.90;;;;;;5033359;28;20029;-74
2023/01/11 04:26:34;;;;;;;2.47;2.28;;;11.20;99.90;;;;;;5033701;28;20029;-74
2023/01/11 04:29:00;;;;;;;3.00;1.80;;;11.20;99.90;;;;;;5033691;28;20079;-74
2023/01/11 04:31:26;;;;;;;2.20;2.00;;;11.20;99.90;;;;;;5034842;28;20685;-74
2023/01/11 04:33:51;;;;;;;3.47;2.20;;;11.20;99.90;;;;;;5034948;28;20480;-74
2023/01/11 04:36:17;;;;;;;2.80;2.42;;;11.30;99.90;;;;;;5033339;28;20057;-75
2023/01/11 04:38:42;;;;;;;3.55;2.00;;;11.30;99.90;;;;;;5034685;28;20139;-74
2023/01/11 04:43:55;;;;;;;3.90;3.13;;;11.30;99.90;;;;;;5033724;28;20516;-74
2023/01/11 04:46:21;;;;;;;4.55;3.58;;;11.30;99.90;;;;;;5034196;28;20486;-75
2023/01/11 04:48:47;;;;;;;3.83;3.25;;;11.30;99.90;;;;;;5033551;28;20041;-75
2023/01/11 04:51:12;;;;;;;4.60;3.95;;;11.40;99.90;;;;;;5033224;28;20029;-75
2023/01/11 04:53:38;;;;;;;4.35;3.95;;;11.40;99.90;;;;;;5033966;28;20029;-75
2023/01/11 04:56:06;;;;;;;4.40;4.00;;;11.40;99.90;;;;;;5033775;28;20033;-75
2023/01/11 04:58:33;;;;;;;5.90;4.55;;;11.40;99.90;;;;;;5032786;28;20030;-74
2023/01/11 05:00:59;;;;;;;5.25;4.57;;;11.40;99.90;;;;;;5032980;28;20034;-74
2023/01/11 05:03:25;;;;;;;5.60;4.75;;;11.40;99.90;;;;;;5034438;28;20034;-74
2023/01/11 05:05:58;;;;;;;6.00;4.13;;;11.50;99.90;;;;;;5033885;28;20527;-74
2023/01/11 05:08:25;;;;;;;4.88;4.47;;;11.50;99.90;;;;;;5033433;28;20022;-74
2023/01/11 05:10:53;;;;;;;6.07;5.22;;;11.50;99.90;;;;;;5034342;28;20037;-74
2023/01/11 05:13:19;;;;;;;6.03;4.80;;;11.40;99.90;;;;;;5033986;28;20033;-74
2023/01/11 05:15:44;;;;;;;5.63;5.13;;;11.50;99.90;;;;;;5032918;28;20032;-74
2023/01/11 05:18:10;;;;;;;7.07;5.05;;;11.50;99.90;;;;;;5033087;28;20037;-74
2023/01/11 05:20:36;;;;;;;5.38;4.88;;;11.50;99.90;;;;;;5033978;28;20037;-73
2023/01/11 05:23:01;;;;;;;5.72;5.13;;;11.50;99.90;;;;;;5032477;28;20377;-73
2023/01/11 05:25:27;;;;;;;6.07;5.45;;;11.60;99.90;;;;;;5016496;28;20021;-74
2023/01/11 05:27:52;;;;;;;7.50;5.88;;;11.50;99.90;;;;;;5033601;28;20138;-73
2023/01/11 05:30:18;;;;;;;8.70;6.10;;;11.50;99.90;;;;;;5032437;28;20413;-74
2023/01/11 05:32:44;;;;;;;8.70;6.18;;;11.60;99.90;;;;;;5033478;28;20425;-75
2023/01/11 05:35:10;;;;;;;7.22;5.65;;;11.60;99.90;;;;;;5032171;28;20379;-74
2023/01/11 05:37:37;;;;;;;8.18;5.85;;;11.50;99.90;;;;;;5033714;28;20386;-74
2023/01/11 05:40:06;;;;;;;8.60;6.15;;;11.60;99.90;;;;;;5033028;28;20029;-73
2023/01/11 05:42:31;;;;;;;10.63;6.18;;;11.60;99.90;;;;;;5034217;28;20034;-74
2023/01/11 05:47:41;;;;;;;10.40;6.28;;;11.60;99.90;;;;;;5018344;28;20041;-74
2023/01/11 05:50:07;;;;;;;11.65;6.10;;;11.60;99.90;;;;;;5032285;28;20029;-73
2023/01/11 05:52:33;;;;;;;10.43;5.55;;;11.60;99.90;;;;;;5032235;28;20041;-74
2023/01/11 05:54:58;;;;;;;12.27;6.65;;;11.60;99.90;;;;;;5015977;28;20041;-73
2023/01/11 05:57:24;;;;;;;8.43;5.05;;;11.60;99.90;;;;;;5031981;28;20029;-73
2023/01/11 05:59:50;;;;;;;16.42;6.05;;;11.60;99.90;;;;;;5032126;28;20030;-73
2023/01/11 06:02:15;;;;;;;13.32;5.50;;;11.60;99.90;;;;;;5032574;28;20365;-74
2023/01/11 06:04:41;;;;;;;9.25;4.82;;;11.60;99.90;;;;;;5032268;28;20466;-74
2023/01/11 06:07:08;;;;;;;11.80;5.03;;;11.60;99.90;;;;;;5033431;28;20032;-73
2023/01/11 06:09:34;;;;;;;14.75;5.18;;;11.60;99.90;;;;;;5015902;28;20035;-74
2023/01/11 06:12:00;;;;;;;11.90;4.80;;;11.60;99.90;;;;;;5032114;28;20454;-74
2023/01/11 06:14:26;;;;;;;11.60;5.15;;;11.60;99.90;;;;;;5032289;28;20034;-75
2023/01/11 06:16:51;;;;;;;12.18;4.70;;;11.60;99.90;;;;;;5015505;28;20030;-76
2023/01/11 06:19:17;;;;;;;13.15;5.25;;;11.60;99.90;;;;;;5032922;28;20108;-75
2023/01/11 06:21:43;;;;;;;15.68;5.00;;;11.60;99.90;;;;;;5031887;28;20026;-75
2023/01/11 06:24:08;;;;;;;12.02;4.78;;;11.60;99.90;;;;;;5032261;28;20048;-74
2023/01/11 06:26:34;;;;;;;16.30;4.68;;;11.60;99.90;;;;;;5015655;28;20401;-75
2023/01/11 06:28:59;;;;;;;13.80;4.43;;;11.60;99.90;;;;;;5033398;28;20454;-75
2023/01/11 06:31:25;;;;;;;13.75;3.95;;;11.60;99.90;;;;;;5032788;28;20033;-75
2023/01/11 06:33:51;;;;;;;14.40;3.63;;;11.50;99.90;;;;;;5031640;28;20092;-76
2023/01/11 06:36:17;;;;;;;23.02;3.72;;;11.50;99.90;;;;;;5032802;28;20054;-75
2023/01/11 06:38:43;;;;;;;13.82;3.35;;;11.50;99.90;;;;;;5031591;28;20124;-75
2023/01/11 06:41:11;;;;;;;14.55;2.65;;;11.50;99.90;;;;;;5031745;28;20030;-75
2023/01/11 06:43:40;;;;;;;20.58;3.03;;;11.50;99.90;;;;;;5015660;28;20042;-75
2023/01/11 06:46:12;;;;;;;23.75;2.92;;;11.50;99.90;;;;;;5033170;28;20018;-76
2023/01/11 06:48:38;;;;;;;22.10;2.63;;;11.40;99.90;;;;;;5032796;28;20470;-76
2023/01/11 06:51:04;;;;;;;22.65;3.28;;;11.40;99.90;;;;;;5033283;28;20119;-75
2023/01/11 06:53:30;;;;;;;14.60;2.45;;;11.40;99.90;;;;;;5032120;28;20033;-75
2023/01/11 06:55:57;;;;;;;21.30;2.70;;;11.40;99.90;;;;;;4999113;28;20034;-80
2023/01/11 06:58:24;;;;;;;19.77;2.55;;;11.40;99.90;;;;;;5032437;28;20036;-80
2023/01/11 07:00:51;;;;;;;16.42;1.90;;;11.40;99.90;;;;;;5035708;28;20116;-79
2023/01/11 07:03:17;;;;;;;16.83;1.85;;;11.30;99.90;;;;;;5018718;28;20126;-80
2023/01/11 07:05:44;;;;;;;13.95;2.28;;;11.30;99.90;;;;;;5036138;28;20065;-81
2023/01/11 07:08:10;;;;;;;23.95;2.65;;;11.30;99.90;;;;;;5036109;28;20026;-77
2023/01/11 07:10:36;;;;;;;15.80;2.40;;;11.30;99.90;;;;;;5035323;28;20497;-78
2023/01/11 07:13:02;;;;;;;18.27;2.28;;;11.20;99.90;;;;;;5035642;28;20060;-76
2023/01/11 07:15:28;;;;;;;29.48;3.10;;;11.20;99.90;;;;;;5034637;28;20040;-78
2023/01/11 07:17:58;;;;;;;17.35;2.10;;;11.30;99.90;;;;;;5034503;28;20057;-76
2023/01/11 07:20:25;;;;;;;14.65;2.30;;;11.30;99.90;;;;;;5034448;28;20026;-77
2023/01/11 07:22:51;;;;;;;15.50;2.47;;;11.30;99.90;;;;;;5035690;28;20029;-78
2023/01/11 07:25:17;;;;;;;18.10;2.47;;;11.20;99.90;;;;;;5035997;28;20091;-77
2023/01/11 07:27:43;;;;;;;19.60;2.38;;;11.20;99.90;;;;;;5034212;28;20051;-77
2023/01/11 07:30:09;;;;;;;24.58;3.78;;;11.20;99.90;;;;;;5034391;28;20454;-77
2023/01/11 07:32:35;;;;;;;20.67;2.83;;;11.20;99.90;;;;;;5018176;28;20042;-77
2023/01/11 07:35:01;;;;;;;15.57;2.00;;;11.20;99.90;;;;;;5034326;28;20458;-76
2023/01/11 07:37:27;;;;;;;21.05;3.03;;;11.20;99.90;;;;;;5034140;28;20171;-76
2023/01/11 07:39:53;;;;;;;21.80;3.10;;;11.20;99.90;;;;;;5035122;28;20029;-78
2023/01/11 07:45:04;;;;;;;24.70;2.67;;;11.10;99.90;;;;;;5034514;28;20068;-77
2023/01/11 07:47:30;;;;;;;19.98;3.25;;;11.10;99.90;;;;;;5035191;28;20109;-77
2023/01/11 07:49:55;;;;;;;21.67;3.08;;;11.10;99.90;;;;;;5018379;28;20108;-77
2023/01/11 07:52:21;;;;;;;16.17;2.35;;;11.10;99.90;;;;;;5033841;28;20030;-77
2023/01/11 07:54:47;;;;;;;23.10;2.47;;;11.10;99.90;;;;;;5033954;28;20029;-76
2023/01/11 07:57:12;;;;;;;19.98;2.60;;;11.10;99.90;;;;;;5017417;28;20033;-77
2023/01/11 07:59:38;;;;;;;19.35;2.30;;;11.10;99.90;;;;;;5017525;28;20025;-76
2023/01/11 08:02:03;;;;;;;21.92;2.58;;;11.10;99.90;;;;;;5034422;28;20079;-77
2023/01/11 08:04:29;;;;;;;19.45;2.50;;;11.10;99.90;;;;;;5001180;28;20116;-77
2023/01/11 08:06:55;;;;;;;20.23;2.03;;;11.10;99.90;;;;;;5033852;28;20029;-77
2023/01/11 08:09:20;;;;;;;21.60;2.67;;;11.10;99.90;;;;;;5034951;28;20026;-76
2023/01/11 08:14:39;;;;;;;20.67;2.88;;;11.00;99.90;;;;;;5034157;28;20111;-76
2023/01/11 08:17:05;;;;;;;17.35;2.38;;;11.00;99.90;;;;;;5019176;28;20061;-78
2023/01/11 08:19:31;;;;;;;17.60;1.92;;;11.00;99.90;;;;;;5017617;28;20036;-75
2023/01/11 08:21:57;;;;;;;23.17;2.10;;;11.00;99.90;;;;;;5017250;28;20421;-78
2023/01/11 08:24:22;;;;;;;23.60;2.50;;;11.00;99.90;;;;;;5033452;28;20375;-77
2023/01/11 08:26:48;;;;;;;17.75;2.17;;;11.00;99.90;;;;;;5033388;28;20446;-79
2023/01/11 08:29:14;;;;;;;21.90;2.55;;;11.00;99.90;;;;;;5016885;28;20033;-77
2023/01/11 08:31:43;;;;;;;13.15;1.98;;;10.90;99.90;;;;;;5033366;28;20053;-79
2023/01/11 08:34:08;;;;;;;24.40;3.75;;;11.00;99.90;;;;;;5034537;28;20033;-78
2023/01/11 08:36:34;;;;;;;15.68;1.83;;;11.00;99.90;;;;;;5017139;28;20059;-77
2023/01/11 08:39:00;;;;;;;17.30;2.50;;;11.00;99.90;;;;;;5034583;28;20064;-77
2023/01/11 08:41:25;;;;;;;17.75;2.13;;;11.00;99.90;;;;;;5017240;28;20450;-79
2023/01/11 08:43:51;;;;;;;22.75;4.55;;;10.90;99.90;;;;;;5032821;28;20033;-79
2023/01/11 08:46:17;;;;;;;17.70;2.50;;;10.90;99.90;;;;;;5032574;28;20034;-73
2023/01/11 08:48:45;;;;;;;19.15;2.15;;;10.80;99.90;;;;;;5033081;28;20057;-74
2023/01/11 08:51:12;;;;;;;16.63;2.08;;;10.80;99.90;;;;;;5032589;28;20492;-73
2023/01/11 08:53:37;;;;;;;17.10;2.00;;;10.80;99.90;;;;;;5032853;28;20065;-73
2023/01/11 08:56:03;;;;;;;21.98;2.75;;;10.80;99.90;;;;;;5034195;28;20431;-71
2023/01/11 08:58:29;;;;;;;15.13;2.38;;;10.80;99.90;;;;;;5000049;28;20037;-73
2023/01/11 09:01:01;;;;;;;19.55;2.47;;;10.80;99.90;;;;;;5034457;28;20029;-73
2023/01/11 09:03:29;;;;;;;18.17;3.08;;;10.80;99.90;;;;;;5034103;28;20033;-73
2023/01/11 09:05:55;;;;;;;18.00;2.30;;;10.80;99.90;;;;;;5032757;28;20026;-77
2023/01/11 09:08:22;;;;;;;16.95;2.03;;;10.70;99.90;;;;;;5033109;28;20021;-77
2023/01/11 09:10:49;;;;;;;19.70;2.22;;;10.80;99.90;;;;;;5033750;28;20124;-77
2023/01/11 09:13:15;;;;;;;14.45;2.25;;;10.80;99.90;;;;;;5032552;28;20045;-74
2023/01/11 09:15:40;;;;;;;15.98;1.55;;;10.80;99.90;;;;;;5032426;28;20367;-73
2023/01/11 09:18:06;;;;;;;21.58;3.17;;;10.80;99.90;;;;;;5032727;28;20083;-74
2023/01/11 09:20:32;;;;;;;17.13;2.53;;;10.80;99.90;;;;;;5016647;28;20474;-74
2023/01/11 09:22:57;;;;;;;18.05;3.05;;;10.80;99.90;;;;;;5031798;28;20037;-74
2023/01/11 09:25:23;;;;;;;23.50;3.08;;;10.80;99.90;;;;;;5032277;28;20029;-73
2023/01/11 09:27:50;;;;;;;19.50;2.35;;;10.80;99.90;;;;;;5033997;28;20022;-78
2023/01/11 09:30:19;;;;;;;18.50;1.95;;;10.80;99.90;;;;;;5033741;28;20033;-79
2023/01/11 09:32:46;;;;;;;25.95;2.83;;;10.70;99.90;;;;;;5033560;28;20095;-78
2023/01/11 09:35:15;;;;;;;21.40;2.40;;;10.60;99.90;;;;;;5032006;28;20046;-79
2023/01/11 09:37:47;;;;;;;22.17;2.70;;;10.60;99.90;;;;;;5033774;28;20049;-78
2023/01/11 09:40:34;;;;;;;20.77;2.42;;;10.60;99.90;;;;;;5033030;28;20466;-78
2023/01/11 09:43:02;;;;;;;17.77;3.45;;;10.50;99.90;;;;;;5033748;28;20036;-73
2023/01/11 09:45:30;;;;;;;20.75;2.75;;;10.60;99.90;;;;;;5033361;28;20037;-73
2023/01/11 09:48:10;;;;;;;22.52;2.75;;;10.60;99.90;;;;;;5031894;28;20057;-73
2023/01/11 09:50:47;;;;;;;18.08;2.58;;;10.50;99.90;;;;;;5033533;28;20025;-73
2023/01/11 09:53:29;;;;;;;20.08;3.55;;;10.50;99.90;;;;;;5032353;28;20041;-73
2023/01/11 09:55:58;;;;;;;19.17;3.10;;;10.40;99.90;;;;;;5032342;28;20067;-73
2023/01/11 09:58:49;;;;;;;20.65;3.08;;;10.40;99.90;;;;;;5033225;28;20026;-74
2023/01/11 10:01:20;;;;;;;19.73;2.58;;;10.60;99.90;;;;;;5033540;28;20060;-74
2023/01/11 10:04:05;;;;;;;19.42;3.03;;;10.60;99.90;;;;;;5031820;28;20064;-74
2023/01/11 10:06:41;;;;;;;25.00;3.47;;;10.50;99.90;;;;;;5032761;28;20068;-72
2023/01/11 10:09:33;;;;;;;17.25;2.70;;;10.60;99.90;;;;;;5033393;28;20034;-74
2023/01/11 10:12:14;;;;;;;20.52;2.33;;;10.70;99.90;;;;;;5033427;28;20037;-74
2023/01/11 10:14:59;;;;;;;20.13;2.35;;;10.90;99.90;;;;;;5032876;28;20080;-74
2023/01/11 10:17:48;;;;;;;21.08;2.58;;;10.90;99.90;;;;;;5031971;28;20029;-73
2023/01/11 10:20:23;;;;;;;21.25;2.92;;;11.00;99.90;;;;;;5032024;28;20021;-73
2023/01/11 10:22:53;;;;;;;23.60;2.65;;;11.00;99.90;;;;;;5031941;28;20099;-75
2023/01/11 10:25:25;;;;;;;22.25;3.03;;;11.10;99.90;;;;;;5031350;28;20466;-74
2023/01/11 10:27:57;;;;;;;19.55;2.17;;;11.20;99.90;;;;;;5032591;28;20021;-73
2023/01/11 10:33:42;;;;;;;21.58;3.75;;;11.40;99.90;;;;;;5034883;28;20033;-73
2023/01/11 10:39:53;;;;;;;16.95;2.25;;;11.50;99.90;;;;;;5036769;28;20469;-72
2023/01/11 10:42:20;;;;;;;15.07;2.63;;;11.60;99.90;;;;;;5036375;28;20335;-73
2023/01/11 10:45:26;;;;;;;19.15;3.45;;;11.70;99.90;;;;;;5036186;28;20133;-73
2023/01/11 10:48:03;;;;;;;16.92;2.55;;;11.80;99.90;;;;;;5034585;28;20095;-73
2023/01/11 10:50:45;;;;;;;16.15;2.20;;;11.90;99.90;;;;;;5036064;28;20397;-75
2023/01/11 10:53:42;;;;;;;14.68;1.75;;;11.90;99.90;;;;;;5034634;28;20030;-73
2023/01/11 10:56:26;;;;;;;29.80;3.22;;;11.90;99.90;;;;;;5036361;28;20037;-74
2023/01/11 10:59:47;;;;;;;22.98;2.50;;;11.80;99.90;;;;;;5035901;28;20528;-73
2023/01/11 11:02:45;;;;;;;16.05;2.20;;;11.70;99.90;;;;;;5035883;28;20037;-73
2023/01/11 11:05:26;;;;;;;24.88;3.45;;;11.70;99.90;;;;;;5036559;28;20033;-73
2023/01/11 11:08:15;;;;;;;18.83;2.33;;;11.60;99.90;;;;;;5034641;28;20032;-72
2023/01/11 11:10:50;;;;;;;16.60;2.15;;;11.50;99.90;;;;;;5034766;28;20120;-73
2023/01/11 11:13:48;;;;;;;16.45;2.30;;;11.50;99.90;;;;;;5035248;28;20387;-73
2023/01/11 11:16:22;;;;;;;23.75;2.78;;;11.50;99.90;;;;;;5035713;28;20037;-72
2023/01/11 11:18:54;;;;;;;23.00;2.67;;;11.50;99.90;;;;;;5034882;28;20031;-73
2023/01/11 11:21:32;;;;;;;19.10;2.88;;;11.50;99.90;;;;;;5034994;28;20460;-73
2023/01/11 11:24:14;;;;;;;18.98;2.85;;;11.50;99.90;;;;;;5035426;28;20029;-75
2023/01/11 11:26:45;;;;;;;19.88;2.00;;;11.50;99.90;;;;;;5034925;28;20358;-73
2023/01/11 11:29:20;;;;;;;16.80;2.47;;;11.40;99.90;;;;;;5034413;28;20029;-74
2023/01/11 11:31:46;;;;;;;16.83;2.45;;;11.40;99.90;;;;;;5034106;28;20029;-74
2023/01/11 11:34:21;;;;;;;23.70;2.53;;;11.40;99.90;;;;;;5035479;28;20033;-73
2023/01/11 11:36:51;;;;;;;17.05;2.50;;;11.40;99.90;;;;;;5034741;28;20107;-74
2023/01/11 11:39:21;;;;;;;20.85;2.95;;;11.40;99.90;;;;;;5035359;28;20030;-73
2023/01/11 11:41:52;;;;;;;26.50;2.88;;;11.40;99.90;;;;;;5034039;28;20034;-72
2023/01/11 11:44:23;;;;;;;19.00;2.40;;;11.40;99.90;;;;;;5034526;28;20075;-73
2023/01/11 11:47:18;;;;;;;18.52;2.25;;;11.40;99.90;;;;;;5034845;28;20072;-72
2023/01/11 11:49:45;;;;;;;27.75;2.78;;;11.30;99.90;;;;;;5035309;28;20045;-72
2023/01/11 11:52:13;;;;;;;22.85;2.67;;;11.20;99.90;;;;;;5035514;28;20029;-73
2023/01/11 11:54:46;;;;;;;18.55;2.08;;;11.20;99.90;;;;;;5033799;28;20044;-74
2023/01/11 11:57:15;;;;;;;19.55;2.42;;;11.20;99.90;;;;;;5034681;28;20033;-72
2023/01/11 11:59:46;;;;;;;19.33;2.63;;;11.20;99.90;;;;;;5035350;28;20033;-73
2023/01/11 12:02:33;;;;;;;20.65;2.80;;;11.20;99.90;;;;;;5034114;28;20033;-73
2023/01/11 12:05:04;;;;;;;14.82;2.13;;;11.20;99.90;;;;;;5034128;28;20021;-73
2023/01/11 12:07:35;;;;;;;16.67;2.47;;;11.20;99.90;;;;;;5034159;28;20536;-71
2023/01/11 12:10:16;;;;;;;20.38;2.13;;;11.20;99.90;;;;;;5034982;28;20029;-73
2023/01/11 12:13:00;;;;;;;18.38;2.13;;;11.30;99.90;;;;;;5034755;28;20030;-73
2023/01/11 12:15:29;;;;;;;20.90;2.30;;;11.30;99.90;;;;;;5033823;28;20033;-72
2023/01/11 12:18:21;;;;;;;23.67;2.10;;;11.40;99.90;;;;;;5034137;28;20025;-75
2023/01/11 12:20:48;;;;;;;20.17;2.25;;;11.40;99.90;;;;;;5034651;28;20025;-71
2023/01/11 12:23:23;;;;;;;16.35;1.98;;;11.40;99.90;;;;;;5016561;28;20079;-73
2023/01/11 12:26:16;;;;;;;17.50;2.67;;;11.40;99.90;;;;;;5032992;28;20457;-72
2023/01/11 12:28:55;;;;;;;21.48;2.15;;;11.50;99.90;;;;;;5033685;28;20030;-74
2023/01/11 12:31:42;;;;;;;16.42;2.35;;;11.50;99.90;;;;;;5034823;28;20029;-73
2023/01/11 12:34:32;;;;;;;22.52;2.42;;;11.40;99.90;;;;;;5032552;28;20037;-73
2023/01/11 12:37:16;;;;;;;25.85;3.58;;;11.40;99.90;;;;;;5034345;28;20034;-74
2023/01/11 12:40:00;;;;;;;24.58;2.35;;;11.30;99.90;;;;;;5033435;28;20410;-74
2023/01/11 12:42:35;;;;;;;20.33;2.20;;;11.30;99.90;;;;;;5032449;28;20116;-73
2023/01/11 12:45:24;;;;;;;19.10;2.40;;;11.20;99.90;;;;;;5032866;28;20017;-73
2023/01/11 12:48:05;;;;;;;24.33;2.67;;;11.20;99.90;;;;;;5034387;28;20049;-74
2023/01/11 12:50:57;;;;;;;21.95;1.95;;;11.20;99.90;;;;;;5032530;28;20048;-74
2023/01/11 12:53:36;;;;;;;21.42;2.58;;;11.10;99.90;;;;;;5033465;28;20033;-73
2023/01/11 12:56:20;;;;;;;18.20;2.42;;;11.10;99.90;;;;;;5032870;28;20112;-75
2023/01/11 12:59:00;;;;;;;19.00;3.15;;;11.10;99.90;;;;;;5033469;28;20033;-74
2023/01/11 13:02:08;;;;;;;16.15;2.05;;;11.10;99.90;;;;;;5032375;28;20112;-74
2023/01/11 13:04:54;;;;;;;16.33;2.13;;;11.20;99.90;;;;;;5031788;28;20546;-80
2023/01/11 13:07:41;;;;;;;20.27;3.15;;;11.20;99.90;;;;;;5033576;28;20155;-79
2023/01/11 13:10:12;;;;;;;23.08;3.03;;;11.30;99.90;;;;;;5032429;28;20033;-78
2023/01/11 13:12:48;;;;;;;20.50;2.60;;;11.40;99.90;;;;;;5033506;28;20076;-78
2023/01/11 13:15:28;;;;;;;21.83;3.10;;;11.40;99.90;;;;;;5033570;28;20122;-78
2023/01/11 13:18:22;;;;;;;18.55;2.70;;;11.40;99.90;;;;;;5032581;28;20021;-75
2023/01/11 13:21:20;;;;;;;18.95;2.92;;;11.30;99.90;;;;;;5014457;28;20044;-75
2023/01/11 13:24:00;;;;;;;20.48;2.47;;;11.20;99.90;;;;;;5031930;28;20033;-75
2023/01/11 13:26:38;;;;;;;21.83;2.88;;;11.20;99.90;;;;;;5033073;28;20100;-74
2023/01/11 13:29:13;;;;;;;20.02;2.53;;;11.20;99.90;;;;;;5031892;28;20075;-75
2023/01/11 13:31:41;;;;;;;18.90;2.50;;;11.20;99.90;;;;;;5033248;28;20056;-74
2023/01/11 13:34:46;;;;;;;19.60;3.03;;;11.20;99.90;;;;;;5031342;28;20397;-74
2023/01/11 13:37:24;;;;;;;20.30;2.78;;;11.20;99.90;;;;;;5031926;28;20482;-75